Time;durP1;ratioP1;P1;durP2;ratioP2;P2;SDS_P1;SDS_P2;PMS_P1;PMS_P2;Temp;Humidity;BMP_temperature;BMP_pressure;BME280_temperature;BME280_humidity;BME280_pressure;Samples;Min_cycle;Max_cycle;Signal;HPM_P1;HPM_P2
2021/05/01 00:01:37;;;;;;;76.17;40.60;;;;;;;6.66;68.83;96709.60;1781358;77;26148;-87
2021/05/01 00:04:05;;;;;;;95.90;47.67;;;;;;;6.60;68.89;96702.39;1790536;78;26332;-86
2021/05/01 00:06:33;;;;;;;107.03;46.53;;;;;;;6.55;68.90;96706.17;1789005;78;26278;-86
2021/05/01 00:09:01;;;;;;;64.62;31.12;;;;;;;6.40;69.19;96702.32;1779100;78;26282;-87
2021/05/01 00:11:28;;;;;;;58.02;30.37;;;;;;;6.35;69.29;96706.14;1780903;77;27496;-87
2021/05/01 00:13:58;;;;;;;55.55;26.97;;;;;;;6.39;69.44;96716.78;1814600;77;26209;-86
2021/05/01 00:16:27;;;;;;;50.85;26.52;;;;;;;6.38;69.37;96719.66;1822947;77;25707;-87
2021/05/01 00:18:55;;;;;;;52.30;26.75;;;;;;;6.34;69.41;96723.76;1818666;78;25452;-86
2021/05/01 00:21:23;;;;;;;45.08;24.80;;;;;;;6.36;69.58;96716.34;1813315;77;25778;-85
2021/05/01 00:23:50;;;;;;;42.17;23.25;;;;;;;6.33;69.53;96719.42;1810031;77;27482;-87
2021/05/01 00:26:18;;;;;;;56.37;30.20;;;;;;;6.19;69.43;96721.23;1809693;77;25718;-86
2021/05/01 00:28:46;;;;;;;51.73;26.93;;;;;;;6.09;69.64;96719.44;1782803;77;25718;-86
2021/05/01 00:31:18;;;;;;;63.73;29.10;;;;;;;6.10;69.82;96723.27;1779201;77;26300;-86
2021/05/01 00:33:46;;;;;;;69.45;32.17;;;;;;;6.10;69.72;96721.09;1790368;77;25778;-87
2021/05/01 00:36:14;;;;;;;67.00;32.58;;;;;;;6.08;69.95;96727.98;1792133;77;27491;-87
2021/05/01 00:38:43;;;;;;;57.40;28.50;;;;;;;6.02;69.84;96736.84;1800373;77;25765;-85
2021/05/01 00:41:10;;;;;;;49.55;25.65;;;;;;;6.02;69.92;96738.69;1804345;78;25799;-86
2021/05/01 00:43:42;;;;;;;46.42;23.22;;;;;;;6.01;69.88;96740.55;1779245;78;25714;-86
2021/05/01 00:46:10;;;;;;;32.63;19.87;;;;;;;5.97;69.92;96735.26;1798631;77;26351;-86
2021/05/01 00:48:37;;;;;;;31.50;20.00;;;;;;;6.01;70.00;96731.67;1811567;77;27495;-86
2021/05/01 00:51:06;;;;;;;30.92;19.02;;;;;;;5.99;70.07;96732.38;1795938;77;25599;-88
2021/05/01 00:53:34;;;;;;;30.92;17.27;;;;;;;5.96;70.05;96728.24;1815637;77;25311;-87
2021/05/01 00:56:02;;;;;;;29.30;14.87;;;;;;;5.88;70.17;96714.16;1818967;77;26376;-87
2021/05/01 00:58:29;;;;;;;27.05;16.07;;;;;;;5.84;70.39;96719.08;1821403;77;25719;-87
2021/05/01 01:01:16;;;;;;;25.68;16.57;;;;;;;5.75;70.49;96718.43;1819993;77;28630;-87
2021/05/01 01:03:37;;;;;;;27.25;17.25;;;;;;;5.76;70.69;96713.39;1813215;77;26307;-86
2021/05/01 01:06:07;;;;;;;41.40;22.62;;;;;;;5.83;70.76;96719.28;1819235;78;25812;-85
2021/05/01 01:08:37;;;;;;;44.05;25.45;;;;;;;5.84;70.82;96721.77;1790423;77;25632;-86
2021/05/01 01:11:05;;;;;;;55.28;29.40;;;;;;;5.87;70.94;96726.73;1790159;77;25955;-86
2021/05/01 01:13:32;;;;;;;50.23;26.35;;;;;;;5.86;71.10;96718.89;1813469;77;27556;-85
2021/05/01 01:16:01;;;;;;;44.63;25.43;;;;;;;5.83;71.26;96712.07;1818782;77;26326;-86
2021/05/01 01:18:28;;;;;;;64.10;29.87;;;;;;;5.82;71.36;96716.28;1791392;77;25317;-86
2021/05/01 01:20:58;;;;;;;52.40;26.73;;;;;;;5.86;71.60;96734.45;1815358;77;26533;-86
2021/05/01 01:23:26;;;;;;;51.75;29.25;;;;;;;5.90;71.60;96749.66;1811463;77;25721;-87
2021/05/01 01:25:54;;;;;;;58.00;32.95;;;;;;;5.92;71.61;96743.05;1802135;77;27573;-86
2021/05/01 01:28:21;;;;;;;55.88;33.53;;;;;;;5.83;71.69;96741.53;1779179;78;26272;-88
2021/05/01 01:30:49;;;;;;;46.68;33.33;;;;;;;5.77;71.99;96739.15;1822692;77;25696;-85
2021/05/01 01:33:18;;;;;;;55.35;32.85;;;;;;;5.80;72.15;96735.23;1796264;78;25764;-85
2021/05/01 01:35:45;;;;;;;51.83;32.78;;;;;;;5.86;72.31;96734.45;1814244;77;26324;-88
2021/05/01 01:38:13;;;;;;;56.42;35.20;;;;;;;5.87;72.45;96743.31;1816445;77;27500;-88
2021/05/01 01:40:42;;;;;;;55.52;34.63;;;;;;;5.87;72.49;96740.13;1808527;78;25758;-88
2021/05/01 01:43:10;;;;;;;58.40;35.48;;;;;;;5.95;72.61;96739.98;1804700;77;25707;-86
2021/05/01 01:45:37;;;;;;;55.15;35.43;;;;;;;6.04;72.49;96741.45;1779184;77;25871;-87
2021/05/01 01:48:05;;;;;;;51.55;34.95;;;;;;;6.11;72.54;96741.51;1779296;77;25798;-87
2021/05/01 01:50:33;;;;;;;49.67;34.45;;;;;;;6.15;72.51;96737.41;1795367;77;27581;-88
2021/05/01 01:53:00;;;;;;;59.33;35.75;;;;;;;6.22;72.51;96736.09;1790238;77;26189;-86
2021/05/01 01:55:28;;;;;;;50.83;34.78;;;;;;;6.29;72.57;96748.98;1812140;78;26094;-86
2021/05/01 01:57:55;;;;;;;56.70;36.10;;;;;;;6.34;72.50;96742.02;1796126;77;26534;-86
2021/05/01 02:00:26;;;;;;;58.00;35.50;;;;;;;6.39;72.55;96728.84;1796193;77;25894;-90
2021/05/01 02:02:55;;;;;;;53.02;32.95;;;;;;;6.44;72.58;96738.43;1816810;77;27566;-87
2021/05/01 02:05:23;;;;;;;49.05;33.78;;;;;;;6.50;72.57;96746.20;1803040;77;26333;-85
2021/05/01 02:07:50;;;;;;;56.45;36.58;;;;;;;6.53;72.69;96738.23;1809272;77;25997;-89
2021/05/01 02:10:18;;;;;;;57.23;36.68;;;;;;;6.53;72.76;96737.73;1796236;77;26449;-85
2021/05/01 02:12:48;;;;;;;58.65;38.53;;;;;;;6.56;72.76;96737.33;1803542;77;26602;-87
2021/05/01 02:15:22;;;;;;;60.12;40.43;;;;;;;6.58;72.78;96728.58;1803812;77;28454;-87
2021/05/01 02:17:53;;;;;;;60.63;42.83;;;;;;;6.64;72.91;96727.75;1822245;78;25773;-86
2021/05/01 02:20:24;;;;;;;69.80;48.50;;;;;;;6.68;72.90;96723.64;1805618;77;26235;-84
2021/05/01 02:22:52;;;;;;;73.47;49.60;;;;;;;6.72;72.89;96725.41;1802636;77;25743;-87
2021/05/01 02:25:20;;;;;;;74.75;49.35;;;;;;;6.75;72.96;96718.30;1809642;77;25283;-86
2021/05/01 02:27:48;;;;;;;74.10;50.12;;;;;;;6.78;73.05;96717.88;1796125;77;27505;-85
2021/05/01 02:30:19;;;;;;;70.32;46.20;;;;;;;6.80;73.04;96712.62;1806163;77;25730;-88
2021/05/01 02:32:47;;;;;;;73.25;46.10;;;;;;;6.78;72.95;96707.97;1828765;77;25788;-89
2021/05/01 02:35:19;;;;;;;66.55;44.85;;;;;;;6.82;72.98;96707.88;1817965;77;25837;-85
2021/05/01 02:37:47;;;;;;;70.83;46.70;;;;;;;6.83;73.12;96709.54;1796322;78;26205;-88
2021/05/01 02:40:17;;;;;;;68.97;43.75;;;;;;;6.86;73.21;96708.31;1819114;77;27497;-84
2021/05/01 02:42:45;;;;;;;61.15;43.73;;;;;;;6.86;73.31;96711.82;1797111;77;25717;-86
2021/05/01 02:45:17;;;;;;;66.53;45.15;;;;;;;6.90;73.47;96714.90;1817461;78;25719;-88
2021/05/01 02:47:45;;;;;;;73.07;47.88;;;;;;;6.92;73.48;96713.36;1811521;77;25808;-83
2021/05/01 02:50:14;;;;;;;67.58;46.33;;;;;;;6.88;73.61;96699.55;1811379;77;25742;-86
2021/05/01 02:52:41;;;;;;;70.78;44.33;;;;;;;6.88;73.57;96702.23;1816824;77;28526;-85
2021/05/01 02:55:10;;;;;;;62.43;43.63;;;;;;;6.91;73.60;96696.95;1821047;76;26353;-87
2021/05/01 02:57:38;;;;;;;65.17;42.62;;;;;;;6.94;73.61;96691.17;1810471;76;25383;-84
2021/05/01 03:00:10;;;;;;;64.17;43.60;;;;;;;6.91;73.68;96682.19;1819196;78;25774;-87
2021/05/01 03:02:37;;;;;;;61.85;40.70;;;;;;;6.90;73.69;96677.34;1795333;78;25832;-83
2021/05/01 03:05:07;;;;;;;55.65;38.75;;;;;;;6.94;73.91;96658.98;1814909;77;26353;-83
2021/05/01 03:07:35;;;;;;;54.73;38.80;;;;;;;6.97;73.88;96650.52;1811815;77;26073;-91
2021/05/01 03:10:09;;;;;;;53.20;36.83;;;;;;;7.00;73.84;96648.27;1815505;77;25955;-89
2021/05/01 03:12:37;;;;;;;72.30;45.23;;;;;;;7.02;73.77;96664.13;1803131;77;26467;-83
2021/05/01 03:15:06;;;;;;;65.08;44.77;;;;;;;7.03;73.74;96667.12;1823982;77;25752;-89
2021/05/01 03:17:34;;;;;;;60.20;40.55;;;;;;;7.04;73.90;96659.38;1815333;77;28403;-83
2021/05/01 03:20:03;;;;;;;54.00;38.42;;;;;;;6.98;73.95;96651.66;1796100;78;25682;-88
2021/05/01 03:22:31;;;;;;;55.88;39.98;;;;;;;6.98;74.14;96642.78;1815375;77;25736;-89
2021/05/01 03:24:58;;;;;;;55.78;39.80;;;;;;;6.91;74.29;96643.28;1824118;77;26463;-86
2021/05/01 03:27:26;;;;;;;62.17;40.20;;;;;;;6.88;74.40;96646.69;1818047;77;25804;-84
2021/05/01 03:29:53;;;;;;;59.10;39.50;;;;;;;6.89;74.56;96634.09;1818008;77;27490;-90
2021/05/01 03:32:21;;;;;;;57.70;39.03;;;;;;;6.90;74.60;96647.00;1803220;77;25745;-89
2021/05/01 03:34:48;;;;;;;57.67;39.13;;;;;;;6.92;74.67;96644.94;1802118;77;25640;-87
2021/05/01 03:37:15;;;;;;;53.85;37.85;;;;;;;6.94;74.74;96645.05;1824452;77;26291;-85
2021/05/01 03:39:43;;;;;;;61.23;40.17;;;;;;;6.98;74.75;96648.16;1814798;77;26133;-89
2021/05/01 03:42:11;;;;;;;58.63;39.98;;;;;;;7.02;74.87;96653.39;1796486;77;27569;-89
2021/05/01 03:44:38;;;;;;;58.05;37.63;;;;;;;7.06;74.90;96668.06;1821463;77;25720;-84
2021/05/01 03:47:05;;;;;;;47.20;34.25;;;;;;;7.09;75.02;96660.42;1827210;78;26272;-85
2021/05/01 03:49:33;;;;;;;49.05;35.40;;;;;;;7.03;74.87;96657.73;1828703;77;25785;-89
2021/05/01 03:52:00;;;;;;;50.67;35.95;;;;;;;6.98;74.98;96659.71;1824462;77;25812;-86
2021/05/01 03:54:28;;;;;;;51.95;36.40;;;;;;;6.97;75.20;96647.84;1802463;77;28443;-87
2021/05/01 03:56:55;;;;;;;49.03;35.88;;;;;;;6.96;75.16;96652.89;1792154;78;25729;-85
2021/05/01 03:59:22;;;;;;;51.92;36.20;;;;;;;7.03;75.31;96656.39;1766957;79;26250;-84
2021/05/01 04:01:50;;;;;;;54.25;36.63;;;;;;;7.05;75.30;96665.89;1774640;79;25824;-85
2021/05/01 04:04:19;;;;;;;53.08;36.75;;;;;;;7.09;75.38;96658.26;1780728;79;25731;-87
2021/05/01 04:06:47;;;;;;;55.55;36.98;;;;;;;7.10;75.36;96665.28;1766803;79;27557;-85
2021/05/01 04:09:15;;;;;;;53.92;37.00;;;;;;;7.14;75.44;96665.98;1766749;79;25931;-83
2021/05/01 04:11:42;;;;;;;50.50;36.23;;;;;;;7.20;75.49;96656.28;1766730;79;25857;-83
2021/05/01 04:14:09;;;;;;;50.73;36.70;;;;;;;7.20;75.37;96658.97;1766819;79;26563;-88
2021/05/01 04:16:36;;;;;;;50.30;36.10;;;;;;;7.24;75.47;96665.58;1766857;79;25790;-87
2021/05/01 04:19:04;;;;;;;49.93;35.73;;;;;;;7.26;75.55;96668.03;1777671;79;27536;-86
2021/05/01 04:21:31;;;;;;;57.83;40.23;;;;;;;7.22;75.49;96666.30;1798338;79;26352;-85
2021/05/01 04:23:59;;;;;;;56.15;40.30;;;;;;;7.26;75.58;96658.64;1767868;79;25984;-85
2021/05/01 04:26:26;;;;;;;56.95;39.27;;;;;;;7.30;75.63;96666.08;1766860;79;25869;-86
2021/05/01 04:28:56;;;;;;;57.08;38.90;;;;;;;7.36;75.56;96668.45;1766915;79;25683;-85
2021/05/01 04:31:22;;;;;;;56.88;39.23;;;;;;;7.42;75.56;96663.06;1782780;79;28487;-86
2021/05/01 04:33:50;;;;;;;54.25;39.35;;;;;;;7.45;75.55;96663.99;1776094;79;25750;-85
2021/05/01 04:36:18;;;;;;;53.52;37.55;;;;;;;7.51;75.55;96671.71;1784814;79;25796;-86
2021/05/01 04:38:45;;;;;;;51.28;35.55;;;;;;;7.53;75.57;96655.70;1790557;79;25749;-85
2021/05/01 04:41:12;;;;;;;47.05;35.68;;;;;;;7.55;75.56;96664.38;1790688;79;25757;-85
2021/05/01 04:43:42;;;;;;;44.73;33.42;;;;;;;7.57;75.53;96660.97;1785427;79;26651;-85
2021/05/01 04:46:09;;;;;;;48.02;33.60;;;;;;;7.62;75.56;96667.55;1766921;79;25732;-85
2021/05/01 04:48:36;;;;;;;44.58;31.85;;;;;;;7.66;75.52;96659.39;1766992;79;26275;-85
2021/05/01 04:51:04;;;;;;;41.65;31.40;;;;;;;7.69;75.38;96663.83;1787942;79;26279;-85
2021/05/01 04:53:32;;;;;;;45.85;32.83;;;;;;;7.73;75.31;96665.59;1789830;79;25769;-84
2021/05/01 04:55:59;;;;;;;45.92;34.08;;;;;;;7.75;75.35;96667.52;1768167;79;27490;-85
2021/05/01 04:58:26;;;;;;;50.85;34.15;;;;;;;7.82;75.40;96657.59;1786225;77;26138;-85
2021/05/01 05:00:54;;;;;;;51.10;36.00;;;;;;;7.88;75.43;96658.90;1796941;78;25777;-85
2021/05/01 05:03:21;;;;;;;57.98;36.88;;;;;;;7.93;75.38;96651.55;1779270;77;26400;-85
2021/05/01 05:05:48;;;;;;;52.98;38.50;;;;;;;7.97;75.35;96651.41;1792565;77;25770;-85
2021/05/01 05:08:16;;;;;;;56.23;38.63;;;;;;;8.01;75.31;96648.61;1814263;77;26343;-85
2021/05/01 05:10:43;;;;;;;54.33;37.50;;;;;;;8.06;75.33;96640.75;1818398;77;26126;-86
2021/05/01 05:13:10;;;;;;;53.60;37.73;;;;;;;8.10;75.33;96639.27;1813441;77;26312;-85
2021/05/01 05:15:38;;;;;;;51.28;37.42;;;;;;;8.10;75.30;96639.27;1815200;77;25510;-86
2021/05/01 05:18:05;;;;;;;58.05;39.50;;;;;;;8.15;75.41;96637.28;1819799;77;25799;-85
2021/05/01 05:20:33;;;;;;;52.17;37.53;;;;;;;8.18;75.45;96639.55;1783671;77;28442;-86
2021/05/01 05:23:00;;;;;;;57.10;38.90;;;;;;;8.19;75.42;96638.00;1779312;77;25656;-86
2021/05/01 05:25:27;;;;;;;57.15;39.67;;;;;;;8.25;75.44;96634.44;1814333;77;26080;-86
2021/05/01 05:27:56;;;;;;;57.75;41.88;;;;;;;8.30;75.45;96639.17;1813074;77;26384;-85
2021/05/01 05:30:24;;;;;;;65.05;43.28;;;;;;;8.36;75.34;96641.54;1809898;77;25742;-87
2021/05/01 05:32:51;;;;;;;61.15;44.95;;;;;;;8.40;75.29;96641.42;1798871;77;28572;-87
2021/05/01 05:35:18;;;;;;;59.83;42.25;;;;;;;8.43;75.28;96644.52;1808545;77;25760;-85
2021/05/01 05:37:45;;;;;;;55.15;37.48;;;;;;;8.44;75.21;96642.65;1779857;77;25688;-85
2021/05/01 05:40:14;;;;;;;48.87;32.83;;;;;;;8.48;75.13;96647.36;1800540;77;25745;-86
2021/05/01 05:42:43;;;;;;;46.85;32.83;;;;;;;8.46;74.86;96647.27;1789951;77;25809;-85
2021/05/01 05:45:12;;;;;;;50.00;34.03;;;;;;;8.47;74.94;96648.39;1811723;77;27496;-85
2021/05/01 05:47:40;;;;;;;37.25;29.52;;;;;;;8.51;74.89;96652.83;1815198;77;25761;-86
2021/05/01 05:50:08;;;;;;;45.90;31.68;;;;;;;8.55;74.81;96650.02;1780229;77;25822;-85
2021/05/01 05:52:35;;;;;;;43.50;30.97;;;;;;;8.61;74.84;96646.45;1779329;77;26217;-86
2021/05/01 05:55:03;;;;;;;40.23;30.65;;;;;;;8.64;74.91;96633.92;1779247;77;25928;-86
2021/05/01 05:57:30;;;;;;;41.45;30.23;;;;;;;8.67;74.85;96640.22;1801712;78;27492;-85
2021/05/01 05:59:58;;;;;;;45.05;30.55;;;;;;;8.70;74.91;96638.41;1822974;77;25806;-85
2021/05/01 06:02:27;;;;;;;37.08;28.73;;;;;;;8.74;74.92;96638.29;1803918;78;25683;-85
2021/05/01 06:05:11;;;;;;;42.55;31.75;;;;;;;8.77;75.02;96648.63;1812089;77;25814;-85
2021/05/01 06:07:43;;;;;;;45.25;34.15;;;;;;;8.86;75.05;96651.86;1812572;77;26038;-85
2021/05/01 06:10:12;;;;;;;45.58;32.80;;;;;;;8.99;75.00;96651.24;1805371;77;27500;-85
2021/05/01 06:12:40;;;;;;;46.88;33.48;;;;;;;9.07;74.66;96653.34;1779257;78;26297;-86
2021/05/01 06:15:12;;;;;;;43.95;33.35;;;;;;;9.12;74.76;96656.22;1781864;77;25742;-86
2021/05/01 06:17:41;;;;;;;42.48;30.92;;;;;;;9.26;75.02;96657.75;1805423;78;25854;-86
2021/05/01 06:20:12;;;;;;;45.15;32.17;;;;;;;9.36;74.80;96660.76;1801865;77;25721;-85
2021/05/01 06:22:41;;;;;;;35.45;27.22;;;;;;;9.44;74.84;96656.94;1820251;77;27554;-86
2021/05/01 06:25:12;;;;;;;37.73;29.63;;;;;;;9.53;74.51;96656.45;1820480;77;25642;-85
2021/05/01 06:27:40;;;;;;;41.83;30.23;;;;;;;9.52;74.42;96651.29;1809043;78;25678;-85
2021/05/01 06:30:11;;;;;;;37.75;28.92;;;;;;;9.59;74.41;96645.30;1798874;77;25726;-85
2021/05/01 06:32:39;;;;;;;41.02;30.62;;;;;;;9.69;74.39;96653.16;1820437;77;25895;-85
2021/05/01 06:35:08;;;;;;;37.10;29.50;;;;;;;9.79;74.39;96653.16;1816737;78;27479;-86
2021/05/01 06:37:39;;;;;;;41.83;30.80;;;;;;;9.84;74.34;96653.31;1820389;77;25790;-85
2021/05/01 06:40:10;;;;;;;44.75;31.60;;;;;;;9.82;74.26;96662.14;1820524;77;25801;-85
2021/05/01 06:42:45;;;;;;;39.78;31.52;;;;;;;9.88;74.08;96659.39;1813960;78;25462;-84
2021/05/01 06:45:16;;;;;;;42.38;31.15;;;;;;;9.95;73.99;96656.08;1794196;77;25694;-85
2021/05/01 06:47:57;;;;;;;41.20;31.52;;;;;;;10.03;74.02;96653.59;1820619;77;28442;-85
2021/05/01 06:50:27;;;;;;;41.00;31.82;;;;;;;10.16;74.04;96650.73;1805949;78;25723;-85
2021/05/01 06:52:57;;;;;;;46.10;33.50;;;;;;;10.30;73.73;96646.86;1800780;77;25791;-86
2021/05/01 06:55:29;;;;;;;43.05;31.93;;;;;;;10.41;73.57;96646.08;1821208;78;25852;-85
2021/05/01 06:57:58;;;;;;;42.03;32.60;;;;;;;10.50;73.62;96652.00;1792330;78;25667;-86
2021/05/01 07:00:28;;;;;;;38.45;30.02;;;;;;;10.61;73.36;96649.04;1819073;77;26833;-85
2021/05/01 07:03:09;;;;;;;41.65;30.62;;;;;;;10.68;73.15;96641.66;1815718;77;26399;-86
2021/05/01 07:05:38;;;;;;;40.73;32.20;;;;;;;10.66;72.87;96643.23;1779141;77;25790;-86
2021/05/01 07:08:06;;;;;;;44.93;33.53;;;;;;;10.58;72.77;96643.57;1810328;77;26465;-86
2021/05/01 07:10:34;;;;;;;40.12;32.50;;;;;;;10.69;72.86;96640.08;1805879;77;25336;-85
2021/05/01 07:13:01;;;;;;;45.63;32.00;;;;;;;10.83;72.89;96643.41;1819168;77;27497;-86
2021/05/01 07:15:29;;;;;;;45.60;31.75;;;;;;;10.98;73.22;96641.09;1821371;77;26108;-85
2021/05/01 07:17:56;;;;;;;39.25;29.32;;;;;;;11.12;72.98;96639.80;1823120;78;25861;-85
2021/05/01 07:20:24;;;;;;;37.93;29.52;;;;;;;11.16;72.63;96634.23;1816236;77;26524;-86
2021/05/01 07:22:53;;;;;;;38.33;30.68;;;;;;;11.30;72.70;96639.42;1779192;77;26276;-85
2021/05/01 07:25:22;;;;;;;38.53;28.92;;;;;;;11.38;72.42;96643.11;1779095;77;27850;-86
2021/05/01 07:27:57;;;;;;;38.63;30.72;;;;;;;11.53;72.56;96644.82;1814949;77;25738;-86
2021/05/01 07:30:27;;;;;;;37.28;27.65;;;;;;;11.75;72.47;96633.72;1811929;78;26248;-86
2021/05/01 07:33:03;;;;;;;33.25;26.93;;;;;;;11.94;71.63;96630.88;1804461;77;25791;-86
2021/05/01 07:35:32;;;;;;;38.67;28.32;;;;;;;12.05;71.38;96632.73;1817554;77;25292;-86
2021/05/01 07:38:05;;;;;;;37.65;29.55;;;;;;;12.15;71.32;96626.17;1798185;78;27699;-86
2021/05/01 07:40:32;;;;;;;37.50;29.25;;;;;;;12.44;71.45;96636.47;1778417;79;25725;-86
2021/05/01 07:43:03;;;;;;;36.63;29.37;;;;;;;12.79;71.27;96633.09;1750613;80;26306;-86
2021/05/01 07:45:31;;;;;;;35.60;28.27;;;;;;;12.99;70.88;96623.13;1736929;80;26599;-86
2021/05/01 07:48:01;;;;;;;33.30;25.20;;;;;;;13.19;70.43;96616.70;1761027;80;25818;-86
2021/05/01 07:50:28;;;;;;;35.33;27.22;;;;;;;13.38;70.12;96615.94;1762512;80;27500;-87
2021/05/01 07:52:56;;;;;;;32.63;26.23;;;;;;;13.46;69.68;96616.03;1778696;79;26550;-87
2021/05/01 07:55:24;;;;;;;31.50;26.17;;;;;;;13.54;69.16;96612.89;1751455;80;25810;-87
2021/05/01 07:57:52;;;;;;;31.50;25.77;;;;;;;13.73;69.18;96612.09;1781325;79;25765;-86
2021/05/01 08:00:21;;;;;;;32.03;25.82;;;;;;;13.83;69.07;96612.22;1775185;80;26106;-87
2021/05/01 08:02:49;;;;;;;30.90;25.15;;;;;;;14.31;69.15;96603.32;1747792;80;27619;-86
2021/05/01 08:05:18;;;;;;;26.57;22.10;;;;;;;14.75;68.61;96606.26;1754658;79;25752;-86
2021/05/01 08:07:47;;;;;;;28.55;22.70;;;;;;;15.25;67.94;96610.50;1750325;79;25835;-87
2021/05/01 08:10:15;;;;;;;25.62;21.97;;;;;;;15.74;67.27;96600.80;1774735;79;25800;-86
2021/05/01 08:12:42;;;;;;;26.33;20.72;;;;;;;16.16;66.80;96602.93;1737065;80;25345;-86
2021/05/01 08:15:11;;;;;;;25.77;21.93;;;;;;;16.61;66.04;96606.88;1758582;80;28480;-86
2021/05/01 08:17:41;;;;;;;27.70;21.85;;;;;;;16.94;65.41;96606.96;1736964;80;26070;-86
2021/05/01 08:20:14;;;;;;;25.45;21.62;;;;;;;17.17;64.22;96609.70;1736963;79;25861;-86
2021/05/01 08:22:42;;;;;;;24.00;19.98;;;;;;;17.38;64.16;96609.99;1737127;80;25770;-87
2021/05/01 08:25:12;;;;;;;23.60;20.00;;;;;;;17.56;63.18;96608.05;1737128;80;25735;-86
2021/05/01 08:27:41;;;;;;;21.87;19.57;;;;;;;17.99;63.33;96600.37;1747071;80;27564;-88
2021/05/01 08:30:15;;;;;;;36.58;20.52;;;;;;;18.47;62.62;96600.72;1747982;79;25900;-87
2021/05/01 08:32:40;;;;;;;22.65;18.42;;;;;;;18.85;62.05;96599.14;1745654;79;25748;-88
2021/05/01 08:35:08;;;;;;;21.42;18.55;;;;;;;19.16;61.31;96600.58;1749402;80;25857;-88
2021/05/01 08:37:36;;;;;;;21.25;17.27;;;;;;;19.65;59.95;96576.37;1753893;80;25675;-88
2021/05/01 08:40:08;;;;;;;22.82;18.07;;;;;;;19.65;59.95;96576.37;1776905;79;27603;-88
2021/05/01 08:42:36;;;;;;;22.27;18.40;;;;;;;20.05;59.23;96591.52;1737919;80;26448;-88
2021/05/01 08:45:07;;;;;;;19.42;17.00;;;;;;;20.24;58.59;96589.67;1734094;80;25325;-88
2021/05/01 08:47:38;;;;;;;23.50;18.35;;;;;;;20.14;57.74;96588.43;1770012;80;25786;-88
2021/05/01 08:50:09;;;;;;;19.02;14.73;;;;;;;20.34;58.00;96586.80;1781115;80;25936;-87
2021/05/01 08:52:36;;;;;;;16.77;14.20;;;;;;;20.74;57.39;96575.89;1782270;79;28464;-88
2021/05/01 08:55:05;;;;;;;16.77;15.03;;;;;;;21.19;56.61;96578.52;1782002;80;25823;-88
2021/05/01 08:57:33;;;;;;;24.98;16.00;;;;;;;21.49;55.95;96581.88;1782181;80;25822;-88
2021/05/01 09:00:00;;;;;;;20.05;14.80;;;;;;;21.75;56.05;96587.16;1784467;80;25773;-87
2021/05/01 09:02:29;;;;;;;19.20;13.65;;;;;;;21.88;55.25;96586.92;1784914;80;25810;-86
2021/05/01 09:04:57;;;;;;;12.13;10.20;;;;;;;22.20;54.48;96588.83;1784768;80;28448;-86
2021/05/01 09:07:26;;;;;;;13.28;11.20;;;;;;;22.53;53.82;96581.27;1758596;80;25789;-86
2021/05/01 09:09:59;;;;;;;15.68;14.10;;;;;;;22.57;52.48;96585.85;1784860;80;25675;-86
2021/05/01 09:12:46;;;;;;;17.10;15.32;;;;;;;22.45;52.43;96586.94;1785061;80;26659;-86
2021/05/01 09:15:24;;;;;;;19.10;17.00;;;;;;;22.27;52.77;96596.91;1784858;80;25659;-85
2021/05/01 09:18:04;;;;;;;16.48;14.65;;;;;;;22.59;52.66;96591.83;1784867;80;28489;-86
2021/05/01 09:20:33;;;;;;;14.70;12.13;;;;;;;22.89;52.26;96584.89;1784716;80;25834;-87
2021/05/01 09:23:07;;;;;;;12.80;11.40;;;;;;;23.01;52.08;96578.02;1784803;80;25798;-86
2021/05/01 09:28:43;;;;;;;12.37;11.18;;;;;;;23.26;50.50;96576.86;1872358;75;25255;-85
2021/05/01 09:31:14;;;;;;;16.40;12.90;;;;;;;23.32;50.99;96573.41;1815368;77;25796;-88
2021/05/01 09:33:50;;;;;;;13.72;12.33;;;;;;;23.45;51.10;96582.73;1820595;77;27754;-88
2021/05/01 09:36:22;;;;;;;18.67;13.65;;;;;;;23.15;50.73;96585.11;1810643;77;25797;-87
2021/05/01 09:39:01;;;;;;;15.32;13.22;;;;;;;22.84;51.10;96573.98;1811336;77;25995;-86
2021/05/01 09:41:35;;;;;;;16.48;14.78;;;;;;;22.95;51.64;96572.63;1826607;77;25697;-85
2021/05/01 09:44:14;;;;;;;16.52;14.87;;;;;;;23.41;51.26;96570.73;1852391;77;25927;-86
2021/05/01 09:46:46;;;;;;;21.37;18.42;;;;;;;23.65;50.30;96564.36;1851438;77;27503;-87
2021/05/01 09:49:23;;;;;;;21.20;19.05;;;;;;;23.48;50.61;96565.58;1852307;77;25819;-85
2021/05/01 09:52:02;;;;;;;23.07;20.55;;;;;;;23.46;50.19;96559.01;1803357;77;25746;-87
2021/05/01 09:54:38;;;;;;;23.25;20.70;;;;;;;23.67;49.75;96560.70;1833843;77;25743;-88
2021/05/01 09:57:11;;;;;;;21.35;19.05;;;;;;;23.94;49.45;96560.52;1833908;77;25818;-87
2021/05/01 09:59:55;;;;;;;23.87;21.27;;;;;;;24.16;48.51;96558.81;1818947;77;28438;-85
2021/05/01 10:02:35;;;;;;;23.10;20.80;;;;;;;24.12;48.73;96561.42;1832729;77;25796;-84
2021/05/01 10:05:13;;;;;;;25.05;22.45;;;;;;;24.27;48.68;96558.84;1808925;77;26314;-85
2021/05/01 10:07:45;;;;;;;28.65;24.72;;;;;;;24.51;48.37;96561.98;1835322;77;26092;-85
2021/05/01 10:10:13;;;;;;;26.37;23.67;;;;;;;24.23;47.50;96550.94;1847660;77;25728;-86
2021/05/01 10:12:45;;;;;;;27.00;24.12;;;;;;;24.19;47.61;96551.30;1834162;77;27550;-85
2021/05/01 10:15:18;;;;;;;;;;;;;;;24.37;47.31;96549.70;1831339;77;25891;-85
2021/05/01 10:17:47;;;;;;;29.65;26.50;;;;;;;23.98;45.83;96544.98;1837227;77;25702;-84
2021/05/01 10:20:16;;;;;;;28.73;25.68;;;;;;;23.69;46.18;96550.17;1844730;77;25795;-85
2021/05/01 10:22:46;;;;;;;28.47;25.68;;;;;;;23.82;46.15;96549.28;1852355;77;25676;-84
2021/05/01 10:25:25;;;;;;;30.23;26.90;;;;;;;24.00;46.50;96544.67;1828633;77;27475;-85
2021/05/01 10:28:03;;;;;;;28.23;25.23;;;;;;;23.91;46.21;96539.70;1838335;77;25900;-82
2021/05/01 10:30:39;;;;;;;27.67;24.70;;;;;;;23.89;46.37;96546.89;1842263;77;25757;-85
2021/05/01 10:33:30;;;;;;;30.02;25.23;;;;;;;23.91;46.01;96551.50;1818823;77;25829;-84
2021/05/01 10:36:26;;;;;;;29.23;26.15;;;;;;;23.84;45.66;96543.45;1826506;77;25657;-85
2021/05/01 10:39:02;;;;;;;29.67;26.42;;;;;;;23.70;45.40;96543.54;1828320;77;27469;-84
2021/05/01 10:41:31;;;;;;;29.42;26.35;;;;;;;23.65;45.61;96547.83;1850108;77;25907;-84
2021/05/01 10:44:01;;;;;;;30.77;27.58;;;;;;;23.62;45.57;96555.34;1845977;77;25785;-84
2021/05/01 10:46:32;;;;;;;28.47;25.48;;;;;;;23.33;45.55;96542.80;1847649;77;26206;-86
2021/05/01 10:49:04;;;;;;;28.30;25.30;;;;;;;23.14;46.07;96536.69;1827550;77;26275;-83
2021/05/01 10:51:44;;;;;;;27.55;24.65;;;;;;;23.41;46.20;96545.39;1850488;77;27564;-82
2021/05/01 10:54:18;;;;;;;30.95;25.23;;;;;;;23.79;46.03;96549.13;1828719;77;25856;-83
2021/05/01 10:56:54;;;;;;;29.15;26.07;;;;;;;23.81;44.46;96552.34;1818258;77;25657;-85
2021/05/01 10:59:26;;;;;;;27.90;25.00;;;;;;;23.28;45.25;96547.64;1818184;77;25758;-83
2021/05/01 11:01:57;;;;;;;27.87;25.02;;;;;;;23.35;45.07;96547.44;1841900;77;25740;-84
2021/05/01 11:04:31;;;;;;;29.75;25.85;;;;;;;23.05;44.75;96541.88;1818358;77;27487;-86
2021/05/01 11:07:25;;;;;;;28.87;25.95;;;;;;;22.89;45.39;96542.80;1841712;77;25642;-84
2021/05/01 11:09:54;;;;;;;30.08;26.93;;;;;;;23.05;45.34;96540.51;1817321;77;25724;-85
2021/05/01 11:12:23;;;;;;;29.32;25.43;;;;;;;23.27;44.84;96535.00;1840781;77;25816;-85
2021/05/01 11:15:11;;;;;;;29.32;26.37;;;;;;;23.18;45.04;96536.89;1818177;77;25336;-84
2021/05/01 11:17:49;;;;;;;30.95;26.80;;;;;;;23.40;45.21;96536.06;1828914;77;27548;-85
2021/05/01 11:20:19;;;;;;;28.83;25.88;;;;;;;23.26;44.51;96539.69;1830112;77;25705;-85
2021/05/01 11:22:52;;;;;;;27.20;24.40;;;;;;;23.20;44.90;96521.66;1829232;77;25722;-82
2021/05/01 11:25:22;;;;;;;28.55;25.52;;;;;;;23.17;44.84;96529.19;1828705;77;25771;-86
2021/05/01 11:27:52;;;;;;;30.75;24.77;;;;;;;23.10;44.30;96520.54;1807117;77;25787;-86
2021/05/01 11:30:27;;;;;;;32.42;28.90;;;;;;;22.88;45.20;96527.41;1787426;77;27690;-86
2021/05/01 11:32:55;;;;;;;35.13;31.33;;;;;;;22.75;45.14;96537.86;1819366;77;25801;-84
2021/05/01 11:35:28;;;;;;;33.45;29.95;;;;;;;22.69;45.31;96539.94;1842694;77;25915;-87
2021/05/01 11:37:58;;;;;;;;;;;;;;;22.81;45.06;96546.30;1822060;77;25796;-85